AirNav   Duncan Aviation - Near you to keep you flying
 
 470 users online  

KFUL Fullerton Municipal Airport
Fullerton, California, USA

GOING TO FULLERTON?


FAA INFORMATION EFFECTIVE 08 SEPTEMBER 2022

Location

FAA Identifier: FUL
Lat/Long: 33-52-19.2510N 117-58-47.2230W
33-52.320850N 117-58.787050W
33.8720142,-117.9797842
(estimated)
Elevation: 96 ft. / 29.3 m (surveyed)
Variation: 14E (1985)
From city: 3 miles W of FULLERTON, CA
Time zone: UTC -7 (UTC -8 during Standard Time)
Zip code: 92833

Airport Operations

Airport use: Open to the public
Activation date: 04/1940
Control tower: yes
ARTCC: LOS ANGELES CENTER
FSS: RIVERSIDE FLIGHT SERVICE STATION
NOTAMs facility: FUL (NOTAM-D service available)
Attendance: 0700-2100
Pattern altitude: 1100 ft. MSL
Wind indicator: lighted
Segmented circle: yes
Lights: WHEN ATCT CLSD ACTVT RLLS RWY 24; REIL RWY 06 & 24; PVASI RWY 06; PAPI RWY 24; MIRL RWY 06/24; TWY LGTS - CTAF.
Beacon: white-green (lighted land airport)
Operates sunset to sunrise.

Airport Communications

CTAF: 119.1
UNICOM: 122.95
ATIS: 125.05
WX ASOS: PHONE 714-870-1372
FULLERTON GROUND: 121.8 [0700-2100]
FULLERTON TOWER: 119.1 [0700-2100]
SOCAL APPROACH: 125.35
SOCAL DEPARTURE: 125.35
HAWWC DP: 125.35
WX ASOS at LGB (9 nm W): PHONE 562-424-0572
WX ASOS at SNA (13 nm SE): PHONE 714-424-0590
WX AWOS-3PT at EMT (13 nm N): 118.75 ((626) 444-1107)
WX AWOS-3PT at CPM (13 nm W): 127.150 (310-631-3022)
WX AWOS-3PT at POC (16 nm NE): 124.4 (909-596-1523)
WX ASOS at HHR (18 nm W): PHONE 310-973-8930
WX ASOS at CNO (18 nm E): PHONE 909-393-5823
WX AWOS-3PT at AJO (19 nm E): 132.175 (951-340-4764)
  • COMMUNICATIONS PRVDD BY RIVERSIDE RADIO ON FREQ 122.45 (SANTA ANA RCO).

Nearby radio navigation aids

VOR radial/distance  VOR name  Freq  Var
SLIr020/6.5SEAL BEACH VORTAC115.7015E
POMr203/15.7POMONA VORTAC110.4015E
ELBr299/17.1EL TORO VOR/DME117.2014E
PDZr248/22.6PARADISE VORTAC112.2015E
LAXr084/22.8LOS ANGELES VORTAC113.6015E
SMOr094/25.1SANTA MONICA VOR/DME110.8015E
RALr245/(26.9)RIVERSIDE VOR108.6014E
VNYr115/33.0VAN NUYS VOR/DME113.1015E
SXCr021/37.0SANTA CATALINA VORTAC114.1515E

Airport Services

Fuel available: 100LL JET-A
Parking: tiedowns
Airframe service: MAJOR
Powerplant service: MAJOR
Bottled oxygen: HIGH
Bulk oxygen: HIGH

Runway Information

Runway 6/24

Dimensions: 3121 x 75 ft. / 951 x 23 m
Surface: asphalt, in good condition
Weight bearing capacity: 
Single wheel: 12.5
Runway edge lights: medium intensity
RUNWAY 6  RUNWAY 24
Latitude: 33-52.263450N33-52.379333N
Longitude: 117-59.088333W117-58.487350W
Elevation: 84.9 ft.95.5 ft.
Traffic pattern: leftright
Runway heading: 063 magnetic, 077 true243 magnetic, 257 true
Displaced threshold: 427 ft.253 ft.
Markings: basic, in good conditionnonprecision, in good condition
Visual slope indicator: pulsating/steady burning VASI on left (4.00 degrees glide path)4-light PAPI on left (4.00 degrees glide path)
Approach lights: RLLS
Runway end identifier lights: yesyes
Touchdown point: yes, no lightsyes, no lights
Instrument approach: LOC/DME
Obstructions: none
+8 FT FENCE AT 55 FT & +15 FT STREET AT 65 FT FM APCH END RY 06.
23 ft. rr, 225 ft. from runway, 80 ft. left and right of centerline, 1:1 slope to clear
+8 FT FENCE AT 15 FT & +15 FT STREET AT 17 FT; POLE & RR AT 100 FT FM APCH END RY 24.

Helipad H1

Dimensions: 37 x 37 ft. / 11 x 11 m
Surface: concrete
Traffic pattern: leftleft

Airport Ownership and Management from official FAA records

Ownership: Publicly-owned
Owner: CITY OF FULLERTON
303 W. COMMONWEALTH AVE
FULLERTON, CA 92832
Phone 714-738-6310
Manager: BRENDAN O'REILLY
4011 W COMMONWEALTH AVE
FULLERTON, CA 92833-2537
Phone 714-738-6323

Airport Operational Statistics

Aircraft based on the field: 312
Single engine airplanes: 283
Multi engine airplanes: 10
Helicopters: 14
Gliders airplanes: 2
Ultralights: 3
    
Aircraft operations: avg 213/day *
59% transient general aviation
40% local general aviation
<1% air taxi
<1% military
<1% commercial
* for 12-month period ending 30 June 2022

Additional Remarks

ARPT HAS NOISE ABATEMENT PROCEDURES CTC AMGR (714) 738-6323.
PORTIONS OF TWY A ADJACENT TO THE APCH END OF RWY 24 NOT VSBL FM ATCT.
RY 06 CALM WIND RY.
PORTIONS OF TWY A BTN INTERSECTION F & WEST END NOT VSBL FM ATCT.
FOR NOISE ABATEMENT RY 06 PREFERRED FOR TKOF; FOLLOW RR TRACKS TO EAST WITH NO TURNS BLO 1000 FT AGL. RY 24 DEP CLIMB TO 700 FT AGL PRIOR TO TURNS.
(84) SEGMENTED CIRCLE LGTD.
LGTD 750 FT TOWER 1.75 MILES WEST OF ARPT ON HEADING OF 285 DEG FROM ARPT.
FOR CD WHEN ATCT CLSD CTC SOCAL APCH AT 800-448-3724.

Instrument Procedures

NOTE: All procedures below are presented as PDF files. If you need a reader for these files, you should download the free Adobe Reader.

NOT FOR NAVIGATION. Please procure official charts for flight.
FAA instrument procedures published for use from 8 September 2022 at 0901Z to 6 October 2022 at 0900Z.

 
STARs - Standard Terminal Arrivals
KAYOH EIGHT **CHANGED**   download (301KB)
 
IAPs - Instrument Approach Procedures
RNAV (GPS) RWY 24   download (239KB)
LOC/DME RWY 24   download (271KB)
VOR-A   download (221KB)
NOTE: Special Alternate Minimums apply   download (115KB)
 
Departure Procedures
ANAHEIM ONE   2 pages: [1] [2] (396KB)
HAWWC THREE (RNAV)   download (190KB)
NOTE: Special Take-Off Minimums/Departure Procedures apply   download (132KB)

Other nearby airports with instrument procedures:

KSLI - Los Alamitos Army Airfield (6 nm SW)
KLGB - Long Beach Airport (Daugherty Field) (9 nm W)
KSNA - John Wayne/Orange County Airport (13 nm SE)
KEMT - San Gabriel Valley Airport (13 nm N)
KPOC - Brackett Field Airport (16 nm NE)
KHHR - Jack Northrop Field/Hawthorne Municipal Airport (18 nm W)
KCNO - Chino Airport (18 nm E)
KTOA - Zamperini Field Airport (18 nm W)
KAJO - Corona Municipal Airport (19 nm E)
 
Loc | Ops | Rwys | IFR | FBO | Links
Com | Nav | Svcs | Stats | Notes

Luxivair - San Bernardino International Airport
 
Area around KFUL (Fullerton Municipal Airport)
 
Road maps at: MapQuest Bing Google
 
Aerial photo
WARNING: Photo may not be current or correct
Aerial photo of KFUL (Fullerton Municipal Airport)
Photo courtesy of focalflight.com
Photo taken 09-Feb-2017
looking west.

Do you have a better or more recent aerial photo of Fullerton Municipal Airport that you would like to share? If so, please send us your photo.

 
Sectional chart

 
Airport diagram
CAUTION: Diagram may not be current
Diagram of KFUL (Fullerton Municipal Airport)
Download PDF
of official airport diagram from the FAA

 
Airport distance calculator
Flying to Fullerton Municipal Airport? Find the distance to fly.

From to KFUL

Sunrise and sunset
Times for 30-Sep-2022
 Local
(UTC-7)
 Zulu
(UTC)
Morning civil twilight06:2213:22
Sunrise06:4713:47
Sunset18:3701:37
Evening civil twilight19:0202:02

Current date and time
Zulu (UTC)  01-Oct-2022 06:25:48
Local (UTC-7)  30-Sep-2022 23:25:48
 
METAR
KFUL 010553Z AUTO 20003KT 10SM OVC020 21/15 A2984 RMK AO2 SLP104 T02060150 10239 20200 51012
KSLI 
7nm SW 
010555Z AUTO 00000KT 10SM OVC019 19/16 M RMK AO2 SLPNO T01940164 10225 20184 $
KLGB 
9nm W 
010553Z 15005KT 10SM OVC020 21/16 A2985 RMK AO2 SLP107 T02060156 10228 20206 51013
KEMT 
12nm N 
010145Z 20008KT 10SM CLR 23/15 A2980
KSNA 
14nm SE 
010553Z 16004KT 10SM BKN021 22/15 A2985 RMK AO2 SLP107 LAST T02170150 10228 20211 51011
KCQT 
17nm NW 
010547Z AUTO 00000KT 10SM OVC017 19/16 A2985 RMK AO2 SLP107 T01940161 10233 20189 51014
KPOC 
17nm NE 
010347Z 23007KT 10SM CLR 19/15 A2984 RMK LAST
KTOA 
18nm W 
302350Z 28011KT 10SM SKC 23/17 A2980
KHHR 
18nm W 
010553Z AUTO 13003KT 10SM OVC022 21/16 A2985 RMK AO2 SLP106 T02060161 10233 20206 53006 $
KAJO 
19nm E 
010556Z AUTO 26006KT 10SM CLR 18/15 A2986 RMK AO2 SLP106 T01780150 10261 20178 51018
TAF
KSLI 
7nm SW 
010500Z 0105/0211 VRB06KT 9999 SKC QNH2984INS BECMG 0110/0111 VRB06KT 9999 BKN016 QNH2983INS BECMG 0119/0120 VRB06KT 9999 SKC QNH2979INS BECMG 0208/0209 VRB06KT 9999 BKN017 OVC024 QNH2987INS TX23/0123Z TN18/0211Z
KLGB 
9nm W 
010520Z 0106/0206 VRB03KT P6SM OVC018 FM011100 VRB03KT P6SM OVC025 FM011900 19008KT P6SM SKC FM020200 VRB03KT P6SM SKC
KSNA 
14nm SE 
010520Z 0106/0206 VRB04KT P6SM OVC015 FM011800 21006KT P6SM SCT020 FM012000 22007KT P6SM SKC FM020300 VRB04KT P6SM BKN022
NOTAMs
Click for the latest NOTAMs
NOTAMs are issued by the DoD/FAA and will open in a separate window not controlled by AirNav.

 

 
 

FBO, Fuel Providers, and Aircraft Ground Support

  
 Business Name 
 
 Contact 
 
 Services / Description 
 
Fuel Prices
 
Comments
  
General Aviation Co Inc.
No ramp fees
UNICOM 122.95
714-526-6611
[web site]
[email]
At General Aviation Co, Inc., we strive to maintain excellent customer service, for all of your aircraft needs.

Hours: 8am-5pm, Mon-Sun

We offer:
-100LL Avgas, Jet-A Fuel, Jet-A Fuel w/prist
-Aircraft Maintenance
-Executive Hangar Rentals (Space is limited.)
-One night free with fuel purchase (no minimum)
-No landing fees, no ramp fees
-Rental cars available (Hertz, Enterprise, StratosShare)

Not taking fuel this time?
Stop by for a cup of coffee, snacks, or association with one of the best communities in Orange County.
More info and photos of General Aviation Co Inc.
 
NATA Safety 1st   U.S. Government AIR Card   Titan Contract Fuel   Titan Rewards   Enterprise Rent-A-Car   Hertz   Wireless Internet Access (WiFi)   National Business Aviation Association  
 
Titan
100LL Jet A
FS $7.25 $7.10 
SS $6.90 $6.60 
 Updated 21-Sep-2022
 
   write
FS=Full service
SS=Self service
Update Fuel Prices
 

Aviation Businesses, Services, and Facilities

  
 Business Name 
 
 Contact 
 
 Services / Description 
 
Distance
 
Comments
  
 Ben's Motorworks
714-396-6090
[web site]
[email]
Aircraft maintenance, Aircraft modifications, Aircraft parts, Aircraft sales / leasing / brokerage, Aircraft management

More info about Ben's Motorworks
on airport  
   write
 

Would you like to see your business listed on this page?

 If your business provides an interesting product or service to pilots, flight crews, aircraft, or users of the Fullerton Municipal Airport, you should consider listing it here.  To start the listing process, click on the button below
 
Add a business
 

Other Pages about Fullerton Municipal Airport

www.ci.fullerton.ca.us/...
 
Update a link
 
Copyright © AirNav, LLC. All rights reserved. Privacy Policy  Contact